Terminal Aerodrome Forecast
Issued by NWS Knoxville/Tri Cities, TN

Home | Current Version | Previous Version | Text Only | Print | Product List | Glossary On
Versions: 1 2 3 4 5 6 7 8 9 10 11 12 13 14 15 16 17 18 19 20 21 22 23 24 25 26 27 28 29 30 31 32 33 34 35 36 37 38 39 40
785
FTUS44 KMRX 301732
TAFTYS
TAF
KTYS 301732Z 3018/0118 27008KT P6SM -SHRA SCT040 BKN080
      TEMPO 3018/3022 VRB06KT 4SM -TSRA BR BKN040CB
     FM302200 21008KT P6SM VCTS BKN050CB
      TEMPO 0102/0105 3SM TSRA BR BKN035CB
     FM010500 VRB04KT P6SM VCTS BKN040CB
      TEMPO 0106/0110 4SM -TSRA BR BKN035CB
     FM011000 VRB04KT P6SM VCSH BKN040=

USA.gov is the U.S. government's official web portal to all federal, state and local government web resources and services.